sensor_id;sensor_type;location;lat;lon;timestamp;P1;durP1;ratioP1;P2;durP2;ratioP2
78412;SDS011;67707;52.348;13.660;2023-02-11T00:00:11;38.25;;;21.13;;
78412;SDS011;67707;52.348;13.660;2023-02-11T00:02:36;46.15;;;19.90;;
78412;SDS011;67707;52.348;13.660;2023-02-11T00:05:02;37.63;;;17.45;;
78412;SDS011;67707;52.348;13.660;2023-02-11T00:07:28;36.78;;;17.52;;
78412;SDS011;67707;52.348;13.660;2023-02-11T00:09:54;40.88;;;18.17;;
78412;SDS011;67707;52.348;13.660;2023-02-11T00:12:20;39.22;;;16.48;;
78412;SDS011;67707;52.348;13.660;2023-02-11T00:14:45;32.63;;;14.13;;
78412;SDS011;67707;52.348;13.660;2023-02-11T00:17:11;41.50;;;18.35;;
78412;SDS011;67707;52.348;13.660;2023-02-11T00:19:36;38.33;;;16.42;;
78412;SDS011;67707;52.348;13.660;2023-02-11T00:22:02;38.40;;;17.63;;
78412;SDS011;67707;52.348;13.660;2023-02-11T00:24:27;41.42;;;16.83;;
78412;SDS011;67707;52.348;13.660;2023-02-11T00:26:54;34.67;;;15.18;;
78412;SDS011;67707;52.348;13.660;2023-02-11T00:29:19;34.05;;;15.48;;
78412;SDS011;67707;52.348;13.660;2023-02-11T00:31:44;39.00;;;17.27;;
78412;SDS011;67707;52.348;13.660;2023-02-11T00:34:10;39.05;;;16.60;;
78412;SDS011;67707;52.348;13.660;2023-02-11T00:36:35;37.07;;;17.63;;
78412;SDS011;67707;52.348;13.660;2023-02-11T00:39:01;39.40;;;20.35;;
78412;SDS011;67707;52.348;13.660;2023-02-11T00:41:26;37.63;;;18.48;;
78412;SDS011;67707;52.348;13.660;2023-02-11T00:43:51;36.65;;;20.85;;
78412;SDS011;67707;52.348;13.660;2023-02-11T00:46:17;37.50;;;17.80;;
78412;SDS011;67707;52.348;13.660;2023-02-11T00:48:42;34.60;;;18.37;;
78412;SDS011;67707;52.348;13.660;2023-02-11T00:51:08;37.50;;;17.50;;
78412;SDS011;67707;52.348;13.660;2023-02-11T00:53:34;31.33;;;15.30;;
78412;SDS011;67707;52.348;13.660;2023-02-11T00:55:59;37.92;;;17.10;;
78412;SDS011;67707;52.348;13.660;2023-02-11T00:58:25;33.70;;;16.83;;
78412;SDS011;67707;52.348;13.660;2023-02-11T01:00:51;41.65;;;18.17;;
78412;SDS011;67707;52.348;13.660;2023-02-11T01:03:17;33.17;;;16.55;;
78412;SDS011;67707;52.348;13.660;2023-02-11T01:05:42;34.38;;;16.88;;
78412;SDS011;67707;52.348;13.660;2023-02-11T01:08:08;38.67;;;16.67;;
78412;SDS011;67707;52.348;13.660;2023-02-11T01:10:33;34.97;;;16.27;;
78412;SDS011;67707;52.348;13.660;2023-02-11T01:12:58;37.10;;;17.73;;
78412;SDS011;67707;52.348;13.660;2023-02-11T01:15:25;36.30;;;17.73;;
78412;SDS011;67707;52.348;13.660;2023-02-11T01:17:51;38.47;;;17.05;;
78412;SDS011;67707;52.348;13.660;2023-02-11T01:20:20;39.35;;;19.25;;
78412;SDS011;67707;52.348;13.660;2023-02-11T01:22:48;35.15;;;16.95;;
78412;SDS011;67707;52.348;13.660;2023-02-11T01:25:13;37.83;;;16.58;;
78412;SDS011;67707;52.348;13.660;2023-02-11T01:27:39;37.40;;;17.77;;
78412;SDS011;67707;52.348;13.660;2023-02-11T01:32:32;39.63;;;17.77;;
78412;SDS011;67707;52.348;13.660;2023-02-11T01:34:57;36.75;;;17.58;;
78412;SDS011;67707;52.348;13.660;2023-02-11T01:37:22;38.17;;;17.97;;
78412;SDS011;67707;52.348;13.660;2023-02-11T01:39:48;36.08;;;17.10;;
78412;SDS011;67707;52.348;13.660;2023-02-11T01:42:17;40.30;;;18.20;;
78412;SDS011;67707;52.348;13.660;2023-02-11T01:44:44;42.63;;;16.88;;
78412;SDS011;67707;52.348;13.660;2023-02-11T01:47:10;36.72;;;16.08;;
78412;SDS011;67707;52.348;13.660;2023-02-11T01:49:37;38.88;;;16.65;;
78412;SDS011;67707;52.348;13.660;2023-02-11T01:52:14;37.25;;;17.48;;
78412;SDS011;67707;52.348;13.660;2023-02-11T01:54:46;39.90;;;18.23;;
78412;SDS011;67707;52.348;13.660;2023-02-11T01:57:33;37.10;;;17.23;;
78412;SDS011;67707;52.348;13.660;2023-02-11T02:00:03;38.05;;;17.40;;
78412;SDS011;67707;52.348;13.660;2023-02-11T02:05:38;36.50;;;17.00;;
78412;SDS011;67707;52.348;13.660;2023-02-11T02:10:40;36.35;;;17.13;;
78412;SDS011;67707;52.348;13.660;2023-02-11T02:13:07;37.05;;;16.52;;
78412;SDS011;67707;52.348;13.660;2023-02-11T02:15:33;36.45;;;17.85;;
78412;SDS011;67707;52.348;13.660;2023-02-11T02:30:06;40.40;;;18.63;;
78412;SDS011;67707;52.348;13.660;2023-02-11T02:32:35;36.53;;;18.65;;
78412;SDS011;67707;52.348;13.660;2023-02-11T02:43:15;41.42;;;18.15;;
78412;SDS011;67707;52.348;13.660;2023-02-11T02:45:41;35.33;;;17.10;;
78412;SDS011;67707;52.348;13.660;2023-02-11T02:48:06;38.67;;;17.73;;
78412;SDS011;67707;52.348;13.660;2023-02-11T02:50:45;37.90;;;18.48;;
78412;SDS011;67707;52.348;13.660;2023-02-11T02:53:20;39.47;;;19.15;;
78412;SDS011;67707;52.348;13.660;2023-02-11T02:56:01;33.03;;;16.58;;
78412;SDS011;67707;52.348;13.660;2023-02-11T03:04:22;46.08;;;19.23;;
78412;SDS011;67707;52.348;13.660;2023-02-11T03:09:30;35.00;;;16.83;;
78412;SDS011;67707;52.348;13.660;2023-02-11T03:11:59;37.03;;;18.67;;
78412;SDS011;67707;52.348;13.660;2023-02-11T03:14:25;35.92;;;18.08;;
78412;SDS011;67707;52.348;13.660;2023-02-11T03:16:51;38.53;;;18.77;;
78412;SDS011;67707;52.348;13.660;2023-02-11T03:19:23;39.33;;;18.58;;
78412;SDS011;67707;52.348;13.660;2023-02-11T03:21:51;36.38;;;16.80;;
78412;SDS011;67707;52.348;13.660;2023-02-11T03:24:19;38.78;;;19.02;;
78412;SDS011;67707;52.348;13.660;2023-02-11T03:26:49;39.28;;;18.00;;
78412;SDS011;67707;52.348;13.660;2023-02-11T03:32:22;41.55;;;17.73;;
78412;SDS011;67707;52.348;13.660;2023-02-11T03:34:57;37.47;;;17.90;;
78412;SDS011;67707;52.348;13.660;2023-02-11T03:40:02;38.83;;;22.73;;
78412;SDS011;67707;52.348;13.660;2023-02-11T03:42:41;40.75;;;18.85;;
78412;SDS011;67707;52.348;13.660;2023-02-11T03:45:09;40.00;;;18.80;;
78412;SDS011;67707;52.348;13.660;2023-02-11T03:47:39;43.78;;;17.98;;
78412;SDS011;67707;52.348;13.660;2023-02-11T03:50:09;45.47;;;18.88;;
78412;SDS011;67707;52.348;13.660;2023-02-11T03:52:35;37.58;;;18.75;;
78412;SDS011;67707;52.348;13.660;2023-02-11T03:55:02;40.20;;;18.73;;
78412;SDS011;67707;52.348;13.660;2023-02-11T03:57:32;43.75;;;21.20;;
78412;SDS011;67707;52.348;13.660;2023-02-11T03:59:58;41.03;;;20.08;;
78412;SDS011;67707;52.348;13.660;2023-02-11T04:02:30;36.17;;;17.77;;
78412;SDS011;67707;52.348;13.660;2023-02-11T04:04:57;36.20;;;17.60;;
78412;SDS011;67707;52.348;13.660;2023-02-11T04:07:23;40.88;;;18.63;;
78412;SDS011;67707;52.348;13.660;2023-02-11T04:09:49;42.08;;;21.25;;
78412;SDS011;67707;52.348;13.660;2023-02-11T04:12:14;34.67;;;17.60;;
78412;SDS011;67707;52.348;13.660;2023-02-11T04:14:39;40.08;;;19.02;;
78412;SDS011;67707;52.348;13.660;2023-02-11T04:17:05;41.58;;;22.60;;
78412;SDS011;67707;52.348;13.660;2023-02-11T04:19:30;41.10;;;18.37;;
78412;SDS011;67707;52.348;13.660;2023-02-11T04:21:56;42.30;;;19.85;;
78412;SDS011;67707;52.348;13.660;2023-02-11T04:24:21;38.70;;;18.42;;
78412;SDS011;67707;52.348;13.660;2023-02-11T04:26:47;47.80;;;22.00;;
78412;SDS011;67707;52.348;13.660;2023-02-11T04:29:12;39.83;;;19.17;;
78412;SDS011;67707;52.348;13.660;2023-02-11T04:31:37;46.63;;;21.08;;
78412;SDS011;67707;52.348;13.660;2023-02-11T04:34:03;35.45;;;16.85;;
78412;SDS011;67707;52.348;13.660;2023-02-11T04:36:28;38.23;;;19.30;;
78412;SDS011;67707;52.348;13.660;2023-02-11T04:38:53;37.50;;;20.23;;
78412;SDS011;67707;52.348;13.660;2023-02-11T04:41:19;44.25;;;20.73;;
78412;SDS011;67707;52.348;13.660;2023-02-11T04:43:44;40.60;;;20.23;;
78412;SDS011;67707;52.348;13.660;2023-02-11T04:46:09;39.67;;;18.60;;
78412;SDS011;67707;52.348;13.660;2023-02-11T04:48:35;42.03;;;19.23;;
78412;SDS011;67707;52.348;13.660;2023-02-11T04:51:00;42.70;;;20.00;;
78412;SDS011;67707;52.348;13.660;2023-02-11T04:53:26;40.83;;;20.75;;
78412;SDS011;67707;52.348;13.660;2023-02-11T04:55:51;50.40;;;22.33;;
78412;SDS011;67707;52.348;13.660;2023-02-11T04:58:17;42.15;;;19.63;;
78412;SDS011;67707;52.348;13.660;2023-02-11T05:00:43;42.10;;;20.48;;
78412;SDS011;67707;52.348;13.660;2023-02-11T05:03:09;38.28;;;18.35;;
78412;SDS011;67707;52.348;13.660;2023-02-11T05:05:36;39.00;;;17.87;;
78412;SDS011;67707;52.348;13.660;2023-02-11T05:08:04;41.95;;;21.65;;
78412;SDS011;67707;52.348;13.660;2023-02-11T05:10:30;45.78;;;23.02;;
78412;SDS011;67707;52.348;13.660;2023-02-11T05:12:55;41.70;;;20.92;;
78412;SDS011;67707;52.348;13.660;2023-02-11T05:15:21;40.15;;;21.48;;
78412;SDS011;67707;52.348;13.660;2023-02-11T05:17:46;44.33;;;20.80;;
78412;SDS011;67707;52.348;13.660;2023-02-11T05:20:12;39.10;;;18.02;;
78412;SDS011;67707;52.348;13.660;2023-02-11T05:22:37;44.03;;;19.90;;
78412;SDS011;67707;52.348;13.660;2023-02-11T05:25:03;45.13;;;20.58;;
78412;SDS011;67707;52.348;13.660;2023-02-11T05:27:28;35.65;;;18.10;;
78412;SDS011;67707;52.348;13.660;2023-02-11T05:29:54;43.30;;;19.98;;
78412;SDS011;67707;52.348;13.660;2023-02-11T05:32:19;42.77;;;20.03;;
78412;SDS011;67707;52.348;13.660;2023-02-11T05:34:44;46.22;;;22.77;;
78412;SDS011;67707;52.348;13.660;2023-02-11T05:37:10;45.40;;;22.80;;
78412;SDS011;67707;52.348;13.660;2023-02-11T05:39:35;46.22;;;24.65;;
78412;SDS011;67707;52.348;13.660;2023-02-11T05:42:00;47.00;;;24.33;;
78412;SDS011;67707;52.348;13.660;2023-02-11T05:44:26;45.23;;;23.20;;
78412;SDS011;67707;52.348;13.660;2023-02-11T05:46:51;38.37;;;21.67;;
78412;SDS011;67707;52.348;13.660;2023-02-11T05:49:17;41.45;;;21.30;;
78412;SDS011;67707;52.348;13.660;2023-02-11T05:51:42;42.25;;;21.63;;
78412;SDS011;67707;52.348;13.660;2023-02-11T05:54:07;45.83;;;22.23;;
78412;SDS011;67707;52.348;13.660;2023-02-11T05:56:33;39.05;;;20.23;;
78412;SDS011;67707;52.348;13.660;2023-02-11T05:58:59;48.22;;;22.02;;
78412;SDS011;67707;52.348;13.660;2023-02-11T06:01:24;46.13;;;20.83;;
78412;SDS011;67707;52.348;13.660;2023-02-11T06:03:50;48.47;;;23.02;;
78412;SDS011;67707;52.348;13.660;2023-02-11T06:06:15;48.20;;;21.58;;
78412;SDS011;67707;52.348;13.660;2023-02-11T06:08:41;44.10;;;22.00;;
78412;SDS011;67707;52.348;13.660;2023-02-11T06:11:07;51.67;;;23.45;;
78412;SDS011;67707;52.348;13.660;2023-02-11T06:13:33;36.30;;;20.23;;
78412;SDS011;67707;52.348;13.660;2023-02-11T06:15:59;49.25;;;23.92;;
78412;SDS011;67707;52.348;13.660;2023-02-11T06:18:25;48.90;;;22.48;;
78412;SDS011;67707;52.348;13.660;2023-02-11T06:20:51;52.88;;;23.63;;
78412;SDS011;67707;52.348;13.660;2023-02-11T06:23:17;46.92;;;20.27;;
78412;SDS011;67707;52.348;13.660;2023-02-11T06:25:42;52.17;;;22.65;;
78412;SDS011;67707;52.348;13.660;2023-02-11T06:28:07;55.60;;;24.17;;
78412;SDS011;67707;52.348;13.660;2023-02-11T06:30:35;50.08;;;24.27;;
78412;SDS011;67707;52.348;13.660;2023-02-11T06:33:01;49.78;;;23.02;;
78412;SDS011;67707;52.348;13.660;2023-02-11T06:35:26;57.10;;;25.02;;
78412;SDS011;67707;52.348;13.660;2023-02-11T06:37:52;52.05;;;28.33;;
78412;SDS011;67707;52.348;13.660;2023-02-11T06:40:18;55.67;;;26.98;;
78412;SDS011;67707;52.348;13.660;2023-02-11T06:42:44;51.92;;;23.83;;
78412;SDS011;67707;52.348;13.660;2023-02-11T06:45:09;56.73;;;24.73;;
78412;SDS011;67707;52.348;13.660;2023-02-11T06:47:35;54.10;;;24.63;;
78412;SDS011;67707;52.348;13.660;2023-02-11T06:50:01;54.40;;;25.23;;
78412;SDS011;67707;52.348;13.660;2023-02-11T06:52:26;51.58;;;23.40;;
78412;SDS011;67707;52.348;13.660;2023-02-11T06:54:52;64.30;;;26.73;;
78412;SDS011;67707;52.348;13.660;2023-02-11T06:57:17;58.33;;;25.67;;
78412;SDS011;67707;52.348;13.660;2023-02-11T06:59:43;62.63;;;26.20;;
78412;SDS011;67707;52.348;13.660;2023-02-11T07:02:08;51.08;;;22.25;;
78412;SDS011;67707;52.348;13.660;2023-02-11T07:04:34;63.92;;;29.70;;
78412;SDS011;67707;52.348;13.660;2023-02-11T07:06:59;57.35;;;25.45;;
78412;SDS011;67707;52.348;13.660;2023-02-11T07:09:25;61.38;;;33.50;;
78412;SDS011;67707;52.348;13.660;2023-02-11T07:11:50;61.20;;;27.65;;
78412;SDS011;67707;52.348;13.660;2023-02-11T07:14:16;59.33;;;25.77;;
78412;SDS011;67707;52.348;13.660;2023-02-11T07:16:41;62.72;;;27.75;;
78412;SDS011;67707;52.348;13.660;2023-02-11T07:19:06;60.80;;;26.58;;
78412;SDS011;67707;52.348;13.660;2023-02-11T07:21:32;65.90;;;25.80;;
78412;SDS011;67707;52.348;13.660;2023-02-11T07:23:58;67.38;;;27.50;;
78412;SDS011;67707;52.348;13.660;2023-02-11T07:26:24;58.60;;;28.02;;
78412;SDS011;67707;52.348;13.660;2023-02-11T07:28:50;61.72;;;29.17;;
78412;SDS011;67707;52.348;13.660;2023-02-11T07:31:16;65.20;;;27.35;;
78412;SDS011;67707;52.348;13.660;2023-02-11T07:33:44;64.32;;;26.73;;
78412;SDS011;67707;52.348;13.660;2023-02-11T07:36:10;61.67;;;28.00;;
78412;SDS011;67707;52.348;13.660;2023-02-11T07:38:37;65.53;;;28.83;;
78412;SDS011;67707;52.348;13.660;2023-02-11T07:41:04;55.40;;;24.52;;
78412;SDS011;67707;52.348;13.660;2023-02-11T07:43:31;66.03;;;28.50;;
78412;SDS011;67707;52.348;13.660;2023-02-11T07:45:56;63.58;;;26.10;;
78412;SDS011;67707;52.348;13.660;2023-02-11T07:48:22;60.95;;;26.63;;
78412;SDS011;67707;52.348;13.660;2023-02-11T07:50:47;63.65;;;28.60;;
78412;SDS011;67707;52.348;13.660;2023-02-11T07:53:13;56.67;;;25.67;;
78412;SDS011;67707;52.348;13.660;2023-02-11T07:55:38;59.90;;;30.50;;
78412;SDS011;67707;52.348;13.660;2023-02-11T07:58:03;66.38;;;28.38;;
78412;SDS011;67707;52.348;13.660;2023-02-11T08:00:29;60.93;;;26.60;;
78412;SDS011;67707;52.348;13.660;2023-02-11T08:02:55;67.33;;;26.77;;
78412;SDS011;67707;52.348;13.660;2023-02-11T08:05:21;59.50;;;26.17;;
78412;SDS011;67707;52.348;13.660;2023-02-11T08:07:49;54.03;;;25.23;;
78412;SDS011;67707;52.348;13.660;2023-02-11T08:10:18;59.42;;;26.88;;
78412;SDS011;67707;52.348;13.660;2023-02-11T08:12:43;55.88;;;25.00;;
78412;SDS011;67707;52.348;13.660;2023-02-11T08:15:09;60.58;;;27.00;;
78412;SDS011;67707;52.348;13.660;2023-02-11T08:17:34;58.58;;;25.73;;
78412;SDS011;67707;52.348;13.660;2023-02-11T08:20:00;58.65;;;25.73;;
78412;SDS011;67707;52.348;13.660;2023-02-11T08:22:26;56.50;;;25.05;;
78412;SDS011;67707;52.348;13.660;2023-02-11T08:24:51;57.73;;;25.03;;
78412;SDS011;67707;52.348;13.660;2023-02-11T08:27:16;49.10;;;25.33;;
78412;SDS011;67707;52.348;13.660;2023-02-11T08:29:42;60.33;;;26.02;;
78412;SDS011;67707;52.348;13.660;2023-02-11T08:32:07;60.65;;;26.35;;
78412;SDS011;67707;52.348;13.660;2023-02-11T08:34:33;55.50;;;27.27;;
78412;SDS011;67707;52.348;13.660;2023-02-11T08:36:58;60.47;;;24.67;;
78412;SDS011;67707;52.348;13.660;2023-02-11T08:39:23;48.55;;;23.15;;
78412;SDS011;67707;52.348;13.660;2023-02-11T08:41:50;51.33;;;23.20;;
78412;SDS011;67707;52.348;13.660;2023-02-11T08:46:42;49.00;;;22.67;;
78412;SDS011;67707;52.348;13.660;2023-02-11T08:49:08;48.30;;;22.33;;
78412;SDS011;67707;52.348;13.660;2023-02-11T08:51:33;48.42;;;21.65;;
78412;SDS011;67707;52.348;13.660;2023-02-11T08:53:59;55.28;;;24.58;;
78412;SDS011;67707;52.348;13.660;2023-02-11T08:56:25;52.22;;;24.52;;
78412;SDS011;67707;52.348;13.660;2023-02-11T08:58:51;49.95;;;25.55;;
78412;SDS011;67707;52.348;13.660;2023-02-11T09:01:18;50.15;;;22.02;;
78412;SDS011;67707;52.348;13.660;2023-02-11T09:03:48;45.67;;;21.35;;
78412;SDS011;67707;52.348;13.660;2023-02-11T09:06:13;56.58;;;25.90;;
78412;SDS011;67707;52.348;13.660;2023-02-11T09:08:40;60.42;;;23.60;;
78412;SDS011;67707;52.348;13.660;2023-02-11T09:11:06;53.30;;;24.77;;
78412;SDS011;67707;52.348;13.660;2023-02-11T09:13:33;49.15;;;22.95;;
78412;SDS011;67707;52.348;13.660;2023-02-11T09:15:59;47.05;;;22.48;;
78412;SDS011;67707;52.348;13.660;2023-02-11T09:18:26;51.15;;;23.25;;
78412;SDS011;67707;52.348;13.660;2023-02-11T09:21:05;47.60;;;21.30;;
78412;SDS011;67707;52.348;13.660;2023-02-11T09:23:32;53.60;;;23.10;;
78412;SDS011;67707;52.348;13.660;2023-02-11T09:25:59;50.65;;;24.40;;
78412;SDS011;67707;52.348;13.660;2023-02-11T09:28:35;51.28;;;21.85;;
78412;SDS011;67707;52.348;13.660;2023-02-11T09:31:07;48.78;;;24.30;;
78412;SDS011;67707;52.348;13.660;2023-02-11T09:33:34;48.08;;;22.73;;
78412;SDS011;67707;52.348;13.660;2023-02-11T09:36:00;48.63;;;21.58;;
78412;SDS011;67707;52.348;13.660;2023-02-11T09:38:26;51.00;;;23.48;;
78412;SDS011;67707;52.348;13.660;2023-02-11T09:40:52;43.10;;;21.13;;
78412;SDS011;67707;52.348;13.660;2023-02-11T09:43:21;55.83;;;28.15;;
78412;SDS011;67707;52.348;13.660;2023-02-11T09:45:48;61.05;;;25.23;;
78412;SDS011;67707;52.348;13.660;2023-02-11T09:48:16;49.20;;;24.05;;
78412;SDS011;67707;52.348;13.660;2023-02-11T09:50:46;51.80;;;23.92;;
78412;SDS011;67707;52.348;13.660;2023-02-11T09:53:27;49.33;;;23.88;;
78412;SDS011;67707;52.348;13.660;2023-02-11T09:56:10;49.65;;;23.27;;
78412;SDS011;67707;52.348;13.660;2023-02-11T09:58:38;50.95;;;23.75;;
78412;SDS011;67707;52.348;13.660;2023-02-11T10:14:42;52.88;;;23.45;;
78412;SDS011;67707;52.348;13.660;2023-02-11T10:22:15;53.67;;;23.03;;
78412;SDS011;67707;52.348;13.660;2023-02-11T10:24:49;57.72;;;24.63;;
78412;SDS011;67707;52.348;13.660;2023-02-11T10:27:19;65.55;;;25.80;;
78412;SDS011;67707;52.348;13.660;2023-02-11T10:29:53;56.08;;;24.17;;
78412;SDS011;67707;52.348;13.660;2023-02-11T10:35:09;58.17;;;26.27;;
78412;SDS011;67707;52.348;13.660;2023-02-11T10:37:39;54.97;;;26.70;;
78412;SDS011;67707;52.348;13.660;2023-02-11T10:40:05;54.47;;;25.33;;
78412;SDS011;67707;52.348;13.660;2023-02-11T10:42:31;59.42;;;24.55;;
78412;SDS011;67707;52.348;13.660;2023-02-11T10:44:58;69.07;;;27.90;;
78412;SDS011;67707;52.348;13.660;2023-02-11T10:47:28;61.95;;;27.67;;
78412;SDS011;67707;52.348;13.660;2023-02-11T10:49:56;62.08;;;25.88;;
78412;SDS011;67707;52.348;13.660;2023-02-11T10:52:27;58.38;;;27.30;;
78412;SDS011;67707;52.348;13.660;2023-02-11T10:57:23;54.33;;;24.70;;
78412;SDS011;67707;52.348;13.660;2023-02-11T11:02:54;57.67;;;25.35;;
78412;SDS011;67707;52.348;13.660;2023-02-11T11:05:28;59.08;;;23.83;;
78412;SDS011;67707;52.348;13.660;2023-02-11T11:08:04;62.65;;;26.33;;
78412;SDS011;67707;52.348;13.660;2023-02-11T11:11:13;65.22;;;26.42;;
78412;SDS011;67707;52.348;13.660;2023-02-11T11:13:38;58.53;;;25.67;;
78412;SDS011;67707;52.348;13.660;2023-02-11T11:16:31;64.47;;;29.20;;
78412;SDS011;67707;52.348;13.660;2023-02-11T11:21:42;58.58;;;23.95;;
78412;SDS011;67707;52.348;13.660;2023-02-11T11:24:19;67.68;;;28.92;;
78412;SDS011;67707;52.348;13.660;2023-02-11T11:26:48;72.78;;;26.75;;
78412;SDS011;67707;52.348;13.660;2023-02-11T11:29:19;61.65;;;25.38;;
78412;SDS011;67707;52.348;13.660;2023-02-11T11:31:54;65.05;;;27.45;;
78412;SDS011;67707;52.348;13.660;2023-02-11T11:36:57;67.65;;;28.08;;
78412;SDS011;67707;52.348;13.660;2023-02-11T11:39:25;76.50;;;29.02;;
78412;SDS011;67707;52.348;13.660;2023-02-11T11:41:59;52.75;;;24.00;;
78412;SDS011;67707;52.348;13.660;2023-02-11T11:44:31;65.10;;;27.35;;
78412;SDS011;67707;52.348;13.660;2023-02-11T11:49:37;56.75;;;23.63;;
78412;SDS011;67707;52.348;13.660;2023-02-11T11:52:31;67.57;;;27.55;;
78412;SDS011;67707;52.348;13.660;2023-02-11T11:55:27;55.45;;;25.30;;
78412;SDS011;67707;52.348;13.660;2023-02-11T11:57:53;61.17;;;26.55;;
78412;SDS011;67707;52.348;13.660;2023-02-11T12:00:19;62.08;;;28.63;;
78412;SDS011;67707;52.348;13.660;2023-02-11T12:03:03;55.08;;;24.88;;
78412;SDS011;67707;52.348;13.660;2023-02-11T12:05:35;59.28;;;24.25;;
78412;SDS011;67707;52.348;13.660;2023-02-11T12:13:19;51.33;;;22.13;;
78412;SDS011;67707;52.348;13.660;2023-02-11T12:18:24;55.58;;;24.55;;
78412;SDS011;67707;52.348;13.660;2023-02-11T12:23:47;52.53;;;22.17;;
78412;SDS011;67707;52.348;13.660;2023-02-11T12:26:22;49.47;;;20.98;;
78412;SDS011;67707;52.348;13.660;2023-02-11T12:34:06;40.45;;;19.58;;
78412;SDS011;67707;52.348;13.660;2023-02-11T12:37:00;41.40;;;19.25;;
78412;SDS011;67707;52.348;13.660;2023-02-11T12:39:50;43.97;;;19.45;;
78412;SDS011;67707;52.348;13.660;2023-02-11T12:45:32;43.33;;;18.67;;
78412;SDS011;67707;52.348;13.660;2023-02-11T12:56:20;45.20;;;21.38;;
78412;SDS011;67707;52.348;13.660;2023-02-11T12:58:50;32.78;;;15.88;;
78412;SDS011;67707;52.348;13.660;2023-02-11T13:03:46;39.42;;;17.75;;
78412;SDS011;67707;52.348;13.660;2023-02-11T13:06:15;51.22;;;20.10;;
78412;SDS011;67707;52.348;13.660;2023-02-11T13:08:48;38.03;;;17.85;;
78412;SDS011;67707;52.348;13.660;2023-02-11T13:11:17;43.20;;;19.73;;
78412;SDS011;67707;52.348;13.660;2023-02-11T13:32:14;41.15;;;19.73;;
78412;SDS011;67707;52.348;13.660;2023-02-11T13:37:05;41.47;;;17.83;;
78412;SDS011;67707;52.348;13.660;2023-02-11T13:42:28;43.50;;;21.63;;
78412;SDS011;67707;52.348;13.660;2023-02-11T13:44:54;47.40;;;19.80;;
78412;SDS011;67707;52.348;13.660;2023-02-11T13:49:55;55.30;;;21.38;;
78412;SDS011;67707;52.348;13.660;2023-02-11T13:52:31;34.38;;;16.50;;
78412;SDS011;67707;52.348;13.660;2023-02-11T13:57:36;41.03;;;21.85;;
78412;SDS011;67707;52.348;13.660;2023-02-11T14:00:42;40.33;;;18.45;;
78412;SDS011;67707;52.348;13.660;2023-02-11T14:09:38;39.22;;;22.08;;
78412;SDS011;67707;52.348;13.660;2023-02-11T14:11:47;41.08;;;17.98;;
78412;SDS011;67707;52.348;13.660;2023-02-11T14:22:05;43.50;;;21.45;;
78412;SDS011;67707;52.348;13.660;2023-02-11T14:27:12;40.60;;;18.60;;
78412;SDS011;67707;52.348;13.660;2023-02-11T14:38:24;36.70;;;17.60;;
78412;SDS011;67707;52.348;13.660;2023-02-11T14:43:43;30.50;;;14.48;;
78412;SDS011;67707;52.348;13.660;2023-02-11T14:46:10;36.10;;;16.50;;
78412;SDS011;67707;52.348;13.660;2023-02-11T14:48:36;41.72;;;18.55;;
78412;SDS011;67707;52.348;13.660;2023-02-11T14:54:00;34.35;;;15.77;;
78412;SDS011;67707;52.348;13.660;2023-02-11T14:56:29;37.92;;;17.45;;
78412;SDS011;67707;52.348;13.660;2023-02-11T14:58:58;36.28;;;17.73;;
78412;SDS011;67707;52.348;13.660;2023-02-11T15:04:02;30.70;;;15.43;;
78412;SDS011;67707;52.348;13.660;2023-02-11T15:06:35;35.20;;;15.68;;
78412;SDS011;67707;52.348;13.660;2023-02-11T15:09:03;32.13;;;15.32;;
78412;SDS011;67707;52.348;13.660;2023-02-11T15:11:32;27.80;;;13.32;;
78412;SDS011;67707;52.348;13.660;2023-02-11T15:14:05;30.15;;;16.95;;
78412;SDS011;67707;52.348;13.660;2023-02-11T15:16:32;37.88;;;14.90;;
78412;SDS011;67707;52.348;13.660;2023-02-11T15:19:00;35.45;;;17.00;;
78412;SDS011;67707;52.348;13.660;2023-02-11T15:21:29;27.98;;;15.10;;
78412;SDS011;67707;52.348;13.660;2023-02-11T15:23:56;38.72;;;14.18;;
78412;SDS011;67707;52.348;13.660;2023-02-11T15:26:26;35.20;;;16.02;;
78412;SDS011;67707;52.348;13.660;2023-02-11T15:28:52;29.48;;;14.55;;
78412;SDS011;67707;52.348;13.660;2023-02-11T15:31:19;23.15;;;11.68;;
78412;SDS011;67707;52.348;13.660;2023-02-11T15:33:47;26.20;;;14.82;;
78412;SDS011;67707;52.348;13.660;2023-02-11T15:36:13;28.85;;;14.23;;
78412;SDS011;67707;52.348;13.660;2023-02-11T15:38:38;31.92;;;15.05;;
78412;SDS011;67707;52.348;13.660;2023-02-11T15:41:05;33.17;;;14.15;;
78412;SDS011;67707;52.348;13.660;2023-02-11T15:46:11;31.33;;;14.43;;
78412;SDS011;67707;52.348;13.660;2023-02-11T15:48:43;29.42;;;15.00;;
78412;SDS011;67707;52.348;13.660;2023-02-11T15:53:47;34.28;;;16.17;;
78412;SDS011;67707;52.348;13.660;2023-02-11T15:56:19;33.55;;;15.80;;
78412;SDS011;67707;52.348;13.660;2023-02-11T15:59:17;33.50;;;14.65;;
78412;SDS011;67707;52.348;13.660;2023-02-11T16:01:44;32.60;;;12.50;;
78412;SDS011;67707;52.348;13.660;2023-02-11T16:04:18;33.30;;;14.80;;
78412;SDS011;67707;52.348;13.660;2023-02-11T16:06:47;30.35;;;14.70;;
78412;SDS011;67707;52.348;13.660;2023-02-11T16:16:52;30.50;;;14.52;;
78412;SDS011;67707;52.348;13.660;2023-02-11T16:19:20;32.75;;;13.23;;
78412;SDS011;67707;52.348;13.660;2023-02-11T16:21:46;27.92;;;13.52;;
78412;SDS011;67707;52.348;13.660;2023-02-11T16:24:20;29.73;;;14.90;;
78412;SDS011;67707;52.348;13.660;2023-02-11T16:26:52;32.20;;;16.30;;
78412;SDS011;67707;52.348;13.660;2023-02-11T16:29:22;36.60;;;14.70;;
78412;SDS011;67707;52.348;13.660;2023-02-11T16:31:49;33.58;;;16.27;;
78412;SDS011;67707;52.348;13.660;2023-02-11T16:34:17;27.20;;;11.75;;
78412;SDS011;67707;52.348;13.660;2023-02-11T16:36:45;26.40;;;12.57;;
78412;SDS011;67707;52.348;13.660;2023-02-11T16:39:11;36.85;;;14.38;;
78412;SDS011;67707;52.348;13.660;2023-02-11T16:41:36;31.58;;;16.15;;
78412;SDS011;67707;52.348;13.660;2023-02-11T16:44:02;27.70;;;13.20;;
78412;SDS011;67707;52.348;13.660;2023-02-11T16:46:27;34.70;;;14.77;;
78412;SDS011;67707;52.348;13.660;2023-02-11T16:48:53;31.45;;;15.38;;
78412;SDS011;67707;52.348;13.660;2023-02-11T16:51:19;31.25;;;13.63;;
78412;SDS011;67707;52.348;13.660;2023-02-11T16:53:46;32.38;;;15.18;;
78412;SDS011;67707;52.348;13.660;2023-02-11T16:56:12;27.27;;;12.95;;
78412;SDS011;67707;52.348;13.660;2023-02-11T16:58:39;32.60;;;15.48;;
78412;SDS011;67707;52.348;13.660;2023-02-11T17:01:05;29.60;;;16.02;;
78412;SDS011;67707;52.348;13.660;2023-02-11T17:03:31;28.25;;;12.85;;
78412;SDS011;67707;52.348;13.660;2023-02-11T17:06:01;26.90;;;12.43;;
78412;SDS011;67707;52.348;13.660;2023-02-11T17:08:29;27.25;;;12.88;;
78412;SDS011;67707;52.348;13.660;2023-02-11T17:10:54;33.00;;;16.20;;
78412;SDS011;67707;52.348;13.660;2023-02-11T17:13:20;29.60;;;13.73;;
78412;SDS011;67707;52.348;13.660;2023-02-11T17:15:45;30.13;;;13.40;;
78412;SDS011;67707;52.348;13.660;2023-02-11T17:18:11;25.57;;;12.43;;